Edgewater Park, New Jersey
Current Conditions -  °F | °C
As of 6:54 PM on Friday 19 Dec 2014 (Local Time) from KPNE Reporting Station
Clear Clear  
Wind Chill: 27°   Ceiling: Unl
Heat Index: 33°   Visibility: 10mi
Dew Point: 20°   Wind: 7mph
Humidity: 59%   Direction: 360°N
Pressure: 30.18"   Gusts: NA
Location:  40.0506°N, 74.9181°W
Report Text: KPNE 192354Z AUTO 36006KT 10SM CLR 01/M07 A3018 RMK AO2 SLP222 T00061067 10061 20006 51030 TSNO $
Loading
Personal Weather Stations






























Interactive Weather Map New forecast layout! Learn more

10-Day Weather Forecast

Advertisements
Track Severe Weather on mobile